createdAt,value
2023-04-02T00:00:23.996Z,96.69
2023-04-02T00:02:46.570Z,95.16
2023-04-02T00:05:34.939Z,96.90
2023-04-02T00:07:40.822Z,96.84
2023-04-02T00:09:43.440Z,96.89
2023-04-02T00:11:49.468Z,96.61
2023-04-02T00:13:52.883Z,96.61
2023-04-02T00:15:58.220Z,96.10
2023-04-02T00:18:02.396Z,95.04
2023-04-02T00:20:07.557Z,95.30
2023-04-02T00:22:20.164Z,96.90
2023-04-02T00:24:24.426Z,96.64
2023-04-02T00:26:32.714Z,95.58
2023-04-02T00:28:35.916Z,95.13
2023-04-02T00:30:38.997Z,95.54
2023-04-02T00:32:43.121Z,95.05
2023-04-02T00:34:46.267Z,96.55
2023-04-02T00:36:50.116Z,94.89
2023-04-02T00:38:54.328Z,96.42
2023-04-02T00:41:02.447Z,95.95
2023-04-02T00:43:07.250Z,95.44
2023-04-02T00:45:19.089Z,95.67
2023-04-02T00:47:25.239Z,95.72
2023-04-02T00:49:36.109Z,95.77
2023-04-02T00:51:44.987Z,95.47
2023-04-02T00:53:49.800Z,95.86
2023-04-02T00:55:53.660Z,95.34
2023-04-02T00:57:59.917Z,95.54
2023-04-02T01:00:19.733Z,95.93
2023-04-02T01:02:29.266Z,94.67
2023-04-02T01:04:35.092Z,94.95
2023-04-02T01:06:39.358Z,95.26
2023-04-02T01:08:55.078Z,95.19
2023-04-02T01:11:06.556Z,95.12
2023-04-02T01:13:21.192Z,94.98
2023-04-02T01:15:30.574Z,95.37
2023-04-02T01:17:49.148Z,95.66
2023-04-02T01:20:25.367Z,94.84
2023-04-02T01:22:36.843Z,94.33
2023-04-02T01:24:40.114Z,95.31
2023-04-02T01:26:58.051Z,95.38
2023-04-02T01:29:07.194Z,95.55
2023-04-02T01:31:11.461Z,95.30
2023-04-02T01:33:14.554Z,95.16
2023-04-02T01:35:17.989Z,95.82
2023-04-02T01:37:37.387Z,96.40
2023-04-02T01:39:52.924Z,96.43
2023-04-02T01:42:04.156Z,95.94
2023-04-02T01:44:12.753Z,95.95
2023-04-02T01:46:26.767Z,95.62
2023-04-02T01:48:31.651Z,94.42
2023-04-02T01:50:37.538Z,95.63
2023-04-02T01:52:43.882Z,95.64
2023-04-02T01:54:49.514Z,95.97
2023-04-02T01:56:53.120Z,96.12
2023-04-02T01:58:58.063Z,95.25
2023-04-02T02:01:07.481Z,94.85
2023-04-02T02:03:13.518Z,94.70
2023-04-02T02:05:19.536Z,95.72
2023-04-02T02:07:23.829Z,94.96
2023-04-02T02:09:33.513Z,94.85
2023-04-02T02:11:36.854Z,96.36
2023-04-02T02:13:42.259Z,95.78
2023-04-02T02:15:45.473Z,95.28
2023-04-02T02:17:51.167Z,96.55
2023-04-02T02:19:59.072Z,94.99
2023-04-02T02:22:09.953Z,94.90
2023-04-02T02:24:20.150Z,95.96
2023-04-02T02:26:26.716Z,95.11
2023-04-02T02:28:34.069Z,96.44
2023-04-02T02:30:39.586Z,96.59
2023-04-02T02:32:54.259Z,96.33
2023-04-02T02:35:02.356Z,95.48
2023-04-02T02:37:09.507Z,95.26
2023-04-02T02:39:18.352Z,95.17
2023-04-02T02:41:31.162Z,96.27
2023-04-02T02:43:40.017Z,95.64
2023-04-02T02:45:45.719Z,95.22
2023-04-02T02:47:50.018Z,96.39
2023-04-02T02:49:59.050Z,96.22
2023-04-02T02:52:14.126Z,96.03
2023-04-02T02:54:33.431Z,96.56
2023-04-02T02:56:40.632Z,95.46
2023-04-02T02:58:43.834Z,95.71
2023-04-02T03:00:58.091Z,95.11
2023-04-02T03:03:04.502Z,95.17
2023-04-02T03:05:10.687Z,96.42
2023-04-02T03:07:16.512Z,95.36
2023-04-02T03:09:28.752Z,96.26
2023-04-02T03:11:41.265Z,94.98
2023-04-02T03:13:52.481Z,95.46
2023-04-02T03:16:02.827Z,95.03
2023-04-02T03:18:11.541Z,94.82
2023-04-02T03:20:22.915Z,96.40
2023-04-02T03:22:32.457Z,94.88
2023-04-02T03:24:40.151Z,96.31
2023-04-02T03:26:49.954Z,95.49
2023-04-02T03:28:58.554Z,95.22
2023-04-02T03:31:06.294Z,96.47
2023-04-02T03:33:15.718Z,96.17
2023-04-02T03:35:25.458Z,95.69
2023-04-02T03:37:33.445Z,95.01
2023-04-02T03:39:42.250Z,95.77
2023-04-02T03:41:52.117Z,96.31
2023-04-02T03:44:01.234Z,95.52
2023-04-02T03:46:15.618Z,94.64
2023-04-02T03:48:26.904Z,95.28
2023-04-02T03:50:36.097Z,95.40
2023-04-02T03:52:39.904Z,95.55
2023-04-02T03:54:54.010Z,95.45
2023-04-02T03:57:00.751Z,94.75
2023-04-02T03:59:15.235Z,94.87
2023-04-02T04:01:26.517Z,95.53
2023-04-02T04:03:32.993Z,95.04
2023-04-02T04:05:43.912Z,94.35
2023-04-02T04:07:47.401Z,93.94
2023-04-02T04:09:53.296Z,94.98
2023-04-02T04:12:08.642Z,93.63
2023-04-02T04:14:18.771Z,94.73
2023-04-02T04:16:26.974Z,93.87
2023-04-02T04:18:35.269Z,94.53
2023-04-02T04:20:51.133Z,93.43
2023-04-02T04:22:56.202Z,94.24
2023-04-02T04:25:03.339Z,94.22
2023-04-02T04:27:13.284Z,93.51
2023-04-02T04:29:32.356Z,94.72
2023-04-02T04:31:40.686Z,93.81
2023-04-02T04:33:50.920Z,93.34
2023-04-02T04:36:02.354Z,93.87
2023-04-02T04:38:15.956Z,93.68
2023-04-02T04:40:22.936Z,92.82
2023-04-02T04:42:33.093Z,93.28
2023-04-02T04:44:43.969Z,92.59
2023-04-02T04:46:53.057Z,93.12
2023-04-02T04:49:05.527Z,93.41
2023-04-02T04:51:20.694Z,92.40
2023-04-02T04:53:27.109Z,92.56
2023-04-02T04:55:39.000Z,92.32
2023-04-02T04:57:43.552Z,92.10
2023-04-02T04:59:56.454Z,92.01
2023-04-02T05:02:06.400Z,91.88
2023-04-02T05:04:16.920Z,92.61
2023-04-02T05:08:53.173Z,91.93
2023-04-02T05:11:01.740Z,91.70
2023-04-02T05:13:11.710Z,91.76
2023-04-02T05:15:20.704Z,92.33
2023-04-02T05:17:29.495Z,91.06
2023-04-02T05:19:39.471Z,91.85
2023-04-02T05:21:49.432Z,91.45
2023-04-02T05:24:00.672Z,92.12
2023-04-02T05:26:09.232Z,91.66
2023-04-02T05:28:20.111Z,91.15
2023-04-02T05:30:47.075Z,91.66
2023-04-02T05:32:57.734Z,91.91
2023-04-02T05:35:07.915Z,91.81
2023-04-02T05:37:18.602Z,91.89
2023-04-02T05:39:24.730Z,91.73
2023-04-02T05:41:37.272Z,91.63
2023-04-02T05:43:46.754Z,90.80
2023-04-02T05:45:54.889Z,92.04
2023-04-02T05:48:02.323Z,93.12
2023-04-02T05:50:27.524Z,91.60
2023-04-02T05:52:36.636Z,91.55
2023-04-02T05:54:47.798Z,91.60
2023-04-02T05:56:55.422Z,91.70
2023-04-02T05:59:05.105Z,91.22
2023-04-02T06:01:29.685Z,91.86
2023-04-02T06:03:46.514Z,91.32
2023-04-02T06:05:54.104Z,91.10
2023-04-02T06:08:01.837Z,91.21
2023-04-02T06:10:12.523Z,91.64
2023-04-02T06:12:25.111Z,91.83
2023-04-02T06:14:28.265Z,91.74
2023-04-02T06:16:33.739Z,92.07
2023-04-02T06:18:37.966Z,91.91
2023-04-02T06:20:40.924Z,92.51
2023-04-02T06:22:47.676Z,91.82
2023-04-02T06:24:55.672Z,92.53
2023-04-02T06:27:06.793Z,91.68
2023-04-02T06:29:17.986Z,92.00
2023-04-02T06:31:30.973Z,92.19
2023-04-02T06:33:34.242Z,92.54
2023-04-02T06:35:40.722Z,91.45
2023-04-02T06:37:48.327Z,90.14
2023-04-02T06:39:59.769Z,89.47
2023-04-02T06:42:11.276Z,90.64
2023-04-02T06:44:37.124Z,90.95
2023-04-02T06:47:04.810Z,89.20
2023-04-02T06:49:16.921Z,89.51
2023-04-02T06:51:25.921Z,89.96
2023-04-02T06:53:33.516Z,89.24
2023-04-02T06:55:43.878Z,90.63
2023-04-02T06:57:48.894Z,89.42
2023-04-02T06:59:53.203Z,89.42
2023-04-02T07:02:04.015Z,90.01
2023-04-02T07:04:07.715Z,89.71
2023-04-02T07:06:18.274Z,90.10
2023-04-02T07:08:23.754Z,89.63
2023-04-02T07:10:27.343Z,90.34
2023-04-02T07:12:30.393Z,89.63
2023-04-02T07:14:35.332Z,90.21
2023-04-02T07:16:38.872Z,89.68
2023-04-02T07:18:42.001Z,89.66
2023-04-02T07:20:45.223Z,91.20
2023-04-02T07:22:50.833Z,90.32
2023-04-02T07:24:53.931Z,89.94
2023-04-02T07:26:57.000Z,91.85
2023-04-02T07:28:59.899Z,89.93
2023-04-02T07:31:04.392Z,90.32
2023-04-02T07:33:07.625Z,91.56
2023-04-02T07:35:11.530Z,90.55
2023-04-02T07:37:15.044Z,90.29
2023-04-02T07:39:18.031Z,89.76
2023-04-02T07:41:22.318Z,90.89
2023-04-02T07:43:25.122Z,91.06
2023-04-02T07:45:28.171Z,91.05
2023-04-02T07:47:32.701Z,91.83
2023-04-02T07:49:35.870Z,90.57
2023-04-02T07:51:38.990Z,91.59
2023-04-02T07:53:42.040Z,90.55
2023-04-02T07:55:44.837Z,91.38
2023-04-02T07:57:52.841Z,91.10
2023-04-02T07:59:57.435Z,90.84
2023-04-02T08:02:00.408Z,90.91
2023-04-02T08:04:05.792Z,91.71
2023-04-02T08:06:08.381Z,91.56
2023-04-02T08:08:11.453Z,90.67
2023-04-02T08:10:14.395Z,91.66
2023-04-02T08:12:17.234Z,91.16
2023-04-02T08:14:20.516Z,91.94
2023-04-02T08:16:25.599Z,91.98
2023-04-02T08:18:29.061Z,92.63
2023-04-02T08:20:33.478Z,92.90
2023-04-02T08:22:36.712Z,92.67
2023-04-02T08:24:39.604Z,92.20
2023-04-02T08:26:43.974Z,93.12
2023-04-02T08:28:48.316Z,92.56
2023-04-02T08:30:51.760Z,92.37
2023-04-02T08:32:54.658Z,92.17
2023-04-02T08:34:57.796Z,92.13
2023-04-02T08:37:02.249Z,92.85
2023-04-02T08:39:05.997Z,92.47
2023-04-02T08:41:17.480Z,91.58
2023-04-02T08:43:42.195Z,91.13
2023-04-02T08:46:01.970Z,91.41
2023-04-02T08:48:06.849Z,91.32
2023-04-02T08:50:19.994Z,90.81
2023-04-02T08:52:26.991Z,91.21
2023-04-02T08:54:34.328Z,91.89
2023-04-02T08:56:42.822Z,92.00
2023-04-02T08:58:52.232Z,92.13
2023-04-02T09:01:02.658Z,90.78
2023-04-02T09:03:11.296Z,91.48
2023-04-02T09:05:21.062Z,90.14
2023-04-02T09:07:27.013Z,89.89
2023-04-02T09:09:36.043Z,90.84
2023-04-02T09:11:47.796Z,91.16
2023-04-02T09:13:56.034Z,90.66
2023-04-02T09:16:04.268Z,90.15
2023-04-02T09:18:14.638Z,89.80
2023-04-02T09:20:21.668Z,90.07
2023-04-02T09:22:27.825Z,90.06
2023-04-02T09:24:30.714Z,88.67
2023-04-02T09:26:34.874Z,89.92
2023-04-02T09:28:38.718Z,89.25
2023-04-02T09:30:56.579Z,88.02
2023-04-02T09:33:02.590Z,88.11
2023-04-02T09:35:36.364Z,88.57
2023-04-02T09:37:37.816Z,88.66
2023-04-02T09:39:41.475Z,88.06
2023-04-02T09:41:48.221Z,87.41
2023-04-02T09:44:21.539Z,88.24
2023-04-02T09:46:26.318Z,88.22
2023-04-02T09:48:32.158Z,86.90
2023-04-02T09:50:35.471Z,86.21
2023-04-02T09:52:39.920Z,87.21
2023-04-02T09:54:43.335Z,86.39
2023-04-02T09:57:03.877Z,86.19
2023-04-02T09:59:15.662Z,87.09
2023-04-02T10:01:29.711Z,87.37
2023-04-02T10:03:34.689Z,88.79
2023-04-02T10:05:40.926Z,87.44
2023-04-02T10:07:49.023Z,86.98
2023-04-02T10:09:59.544Z,85.70
2023-04-02T10:12:06.181Z,86.00
2023-04-02T10:14:16.509Z,85.93
2023-04-02T10:16:27.202Z,86.27
2023-04-02T10:18:40.215Z,85.94
2023-04-02T10:20:51.365Z,85.50
2023-04-02T10:22:56.273Z,85.81
2023-04-02T10:24:59.875Z,86.63
2023-04-02T10:27:18.062Z,86.21
2023-04-02T10:29:35.552Z,83.43
2023-04-02T10:31:44.695Z,84.48
2023-04-02T10:33:52.310Z,83.04
2023-04-02T10:36:02.932Z,84.62
2023-04-02T10:38:25.483Z,83.48
2023-04-02T10:40:32.445Z,82.52
2023-04-02T10:42:41.556Z,83.81
2023-04-02T10:44:53.426Z,82.20
2023-04-02T10:47:08.447Z,82.81
2023-04-02T10:49:23.245Z,82.47
2023-04-02T10:51:32.646Z,81.98
2023-04-02T10:53:46.386Z,82.36
2023-04-02T10:55:55.667Z,82.32
2023-04-02T10:58:01.056Z,81.74
2023-04-02T11:00:18.686Z,82.69
2023-04-02T11:02:32.325Z,82.89
2023-04-02T11:04:42.848Z,82.48
2023-04-02T11:06:50.990Z,81.12
2023-04-02T11:09:01.485Z,81.61
2023-04-02T11:11:09.617Z,82.41
2023-04-02T11:13:21.207Z,82.59
2023-04-02T11:15:24.684Z,82.04
2023-04-02T11:17:27.905Z,82.08
2023-04-02T11:19:32.234Z,82.18
2023-04-02T11:21:51.023Z,80.95
2023-04-02T11:24:03.288Z,80.97
2023-04-02T11:26:48.767Z,79.71
2023-04-02T11:29:03.966Z,79.67
2023-04-02T11:31:07.345Z,79.49
2023-04-02T11:33:44.801Z,78.37
2023-04-02T11:35:49.430Z,80.02
2023-04-02T11:37:53.018Z,80.04
2023-04-02T11:39:59.487Z,79.54
2023-04-02T11:42:06.129Z,78.13
2023-04-02T11:44:23.466Z,78.39
2023-04-02T11:46:42.050Z,78.33
2023-04-02T11:48:45.596Z,79.83
2023-04-02T11:50:48.866Z,79.60
2023-04-02T11:52:53.860Z,78.45
2023-04-02T11:55:02.077Z,78.88
2023-04-02T11:57:18.454Z,77.56
2023-04-02T11:59:30.995Z,77.44
2023-04-02T12:02:00.029Z,77.40
2023-04-02T12:04:39.777Z,79.45
2023-04-02T12:06:55.092Z,77.13
2023-04-02T12:09:10.595Z,77.31
2023-04-02T12:11:16.129Z,80.27
2023-04-02T12:13:20.331Z,78.34
2023-04-02T12:15:44.647Z,79.38
2023-04-02T12:17:47.578Z,79.27
2023-04-02T12:19:52.758Z,77.50
2023-04-02T12:21:56.794Z,77.70
2023-04-02T12:24:00.969Z,77.19
2023-04-02T12:26:06.868Z,78.48
2023-04-02T12:28:20.877Z,78.02
2023-04-02T12:30:24.457Z,78.62
2023-04-02T12:32:30.113Z,77.39
2023-04-02T12:34:33.495Z,77.96
2023-04-02T12:36:36.419Z,77.17
2023-04-02T12:38:46.222Z,76.25
2023-04-02T12:40:56.498Z,78.68
2023-04-02T12:42:59.638Z,78.64
2023-04-02T12:45:07.040Z,79.60
2023-04-02T12:47:14.026Z,78.31
2023-04-02T12:49:31.670Z,78.96
2023-04-02T12:51:36.717Z,78.88
2023-04-02T12:53:41.478Z,79.76
2023-04-02T12:55:47.940Z,79.00
2023-04-02T12:57:55.988Z,79.19
2023-04-02T13:00:00.297Z,80.08
2023-04-02T13:02:18.968Z,80.29
2023-04-02T13:04:22.460Z,79.40
2023-04-02T13:06:26.849Z,78.20
2023-04-02T13:08:33.431Z,79.64
2023-04-02T13:10:37.146Z,80.09
2023-04-02T13:12:41.622Z,80.10
2023-04-02T13:14:44.605Z,80.67
2023-04-02T13:16:48.352Z,80.91
2023-04-02T13:19:09.445Z,80.40
2023-04-02T13:21:28.168Z,80.83
2023-04-02T13:23:37.707Z,80.45
2023-04-02T13:25:40.635Z,80.84
2023-04-02T13:27:43.616Z,80.28
2023-04-02T13:29:46.846Z,81.32
2023-04-02T13:31:50.378Z,80.03
2023-04-02T13:33:54.808Z,78.49
2023-04-02T13:35:58.009Z,79.60
2023-04-02T13:38:03.282Z,79.55
2023-04-02T13:40:09.090Z,78.12
2023-04-02T13:42:13.204Z,78.95
2023-04-02T13:44:21.225Z,79.03
2023-04-02T13:46:26.675Z,80.79
2023-04-02T13:48:29.777Z,80.39
2023-04-02T13:50:36.544Z,81.22
2023-04-02T13:52:39.908Z,81.26
2023-04-02T13:54:49.328Z,80.78
2023-04-02T13:56:53.046Z,81.68
2023-04-02T13:58:56.044Z,81.53
2023-04-02T14:00:59.135Z,81.16
2023-04-02T14:03:07.633Z,81.63
2023-04-02T14:05:23.216Z,80.58
2023-04-02T14:07:39.524Z,80.19
2023-04-02T14:09:55.395Z,80.60
2023-04-02T14:12:04.849Z,80.00
2023-04-02T14:14:31.605Z,79.91
2023-04-02T14:16:42.576Z,79.71
2023-04-02T14:19:06.584Z,80.05
2023-04-02T14:21:20.415Z,80.23
2023-04-02T14:23:37.982Z,81.47
2023-04-02T14:25:50.865Z,80.30
2023-04-02T14:28:00.017Z,81.07
2023-04-02T14:30:09.943Z,81.16
2023-04-02T14:32:20.730Z,81.87
2023-04-02T14:34:33.392Z,81.39
2023-04-02T14:36:44.767Z,81.25
2023-04-02T14:38:58.135Z,80.53
2023-04-02T14:41:09.116Z,80.55
2023-04-02T14:43:16.775Z,80.73
2023-04-02T14:45:31.932Z,80.50
2023-04-02T14:47:39.901Z,80.59
2023-04-02T14:49:46.200Z,81.71
2023-04-02T14:51:53.215Z,81.58
2023-04-02T14:54:05.053Z,80.99
2023-04-02T14:56:10.935Z,81.52
2023-04-02T14:58:20.094Z,81.02
2023-04-02T15:00:29.169Z,81.45
2023-04-02T15:02:42.728Z,80.95
2023-04-02T15:04:50.112Z,80.45
2023-04-02T15:06:57.915Z,80.68
2023-04-02T15:09:09.389Z,81.12
2023-04-02T15:11:18.725Z,80.75
2023-04-02T15:13:26.232Z,80.50
2023-04-02T15:15:40.865Z,80.35
2023-04-02T15:17:44.031Z,80.42
2023-04-02T15:19:47.183Z,81.28
2023-04-02T15:22:20.201Z,81.00
2023-04-02T15:24:31.969Z,81.68
2023-04-02T15:26:47.172Z,81.51
2023-04-02T15:28:59.911Z,81.01
2023-04-02T15:31:12.253Z,80.55
2023-04-02T15:33:41.785Z,81.71
2023-04-02T15:35:48.597Z,81.38
2023-04-02T15:37:58.816Z,81.47
2023-04-02T15:40:24.187Z,81.96
2023-04-02T15:42:29.577Z,81.99
2023-04-02T15:44:34.350Z,81.49
2023-04-02T15:46:52.261Z,81.03
2023-04-02T15:49:15.735Z,81.63
2023-04-02T15:51:35.671Z,82.26
2023-04-02T15:53:48.677Z,82.56
2023-04-02T15:56:15.493Z,82.32
2023-04-02T15:58:25.114Z,81.97
2023-04-02T16:00:31.004Z,81.93
2023-04-02T16:03:02.871Z,83.11
2023-04-02T16:05:14.129Z,81.99
2023-04-02T16:07:30.186Z,82.02
2023-04-02T16:09:37.796Z,82.08
2023-04-02T16:11:42.117Z,82.53
2023-04-02T16:13:45.257Z,82.05
2023-04-02T16:15:53.966Z,83.17
2023-04-02T16:18:02.384Z,83.05
2023-04-02T16:20:18.530Z,82.66
2023-04-02T16:22:25.641Z,81.86
2023-04-02T16:24:28.605Z,81.13
2023-04-02T16:26:48.157Z,81.57
2023-04-02T16:29:03.800Z,81.82
2023-04-02T16:31:11.618Z,81.45
2023-04-02T16:33:29.609Z,81.62
2023-04-02T16:35:43.423Z,82.25
2023-04-02T16:37:52.116Z,82.23
2023-04-02T16:40:03.357Z,81.56
2023-04-02T16:42:19.539Z,81.61
2023-04-02T16:44:32.615Z,80.96
2023-04-02T16:46:47.540Z,81.89
2023-04-02T16:48:58.846Z,81.48
2023-04-02T16:51:14.848Z,81.45
2023-04-02T16:53:27.998Z,82.64
2023-04-02T16:55:48.230Z,82.48
2023-04-02T16:58:03.723Z,82.18
2023-04-02T17:00:17.766Z,82.32
2023-04-02T17:02:31.676Z,83.02
2023-04-02T17:04:57.195Z,82.80
2023-04-02T17:07:10.758Z,81.40
2023-04-02T17:09:17.209Z,81.91
2023-04-02T17:11:24.561Z,82.06
2023-04-02T17:13:39.493Z,81.43
2023-04-02T17:15:47.310Z,82.10
2023-04-02T17:17:50.262Z,80.34
2023-04-02T17:19:59.081Z,81.10
2023-04-02T17:22:04.187Z,80.95
2023-04-02T17:24:21.943Z,82.52
2023-04-02T17:26:28.416Z,81.68
2023-04-02T17:28:38.346Z,82.33
2023-04-02T17:30:45.272Z,83.07
2023-04-02T17:32:48.613Z,83.03
2023-04-02T17:34:51.698Z,82.57
2023-04-02T17:37:03.152Z,81.73
2023-04-02T17:39:18.253Z,81.78
2023-04-02T17:41:26.716Z,81.54
2023-04-02T17:43:43.455Z,81.96
2023-04-02T17:45:52.515Z,82.65
2023-04-02T17:48:02.293Z,81.71
2023-04-02T17:50:26.179Z,82.34
2023-04-02T17:52:34.255Z,82.28
2023-04-02T17:54:45.997Z,82.33
2023-04-02T17:57:00.629Z,83.07
2023-04-02T17:59:15.407Z,82.12
2023-04-02T18:01:25.857Z,81.35
2023-04-02T18:03:58.588Z,81.70
2023-04-02T18:06:06.944Z,83.03
2023-04-02T18:08:19.275Z,82.39
2023-04-02T18:10:31.694Z,82.65
2023-04-02T18:12:50.945Z,82.57
2023-04-02T18:15:06.005Z,82.41
2023-04-02T18:17:17.426Z,82.46
2023-04-02T18:19:30.890Z,83.03
2023-04-02T18:21:43.793Z,83.85
2023-04-02T18:23:59.415Z,83.45
2023-04-02T18:26:11.767Z,84.55
2023-04-02T18:28:26.040Z,84.71
2023-04-02T18:30:37.528Z,83.97
2023-04-02T18:33:00.232Z,84.11
2023-04-02T18:35:14.600Z,84.09
2023-04-02T18:37:28.785Z,83.08
2023-04-02T18:39:45.744Z,83.31
2023-04-02T18:41:55.240Z,83.67
2023-04-02T18:44:13.955Z,83.75
2023-04-02T18:46:26.571Z,84.03
2023-04-02T18:48:41.391Z,82.43
2023-04-02T18:50:47.152Z,82.13
2023-04-02T18:52:51.100Z,81.96
2023-04-02T18:55:00.823Z,82.47
2023-04-02T18:57:11.954Z,82.46
2023-04-02T18:59:34.990Z,82.36
2023-04-02T19:03:50.791Z,81.98
2023-04-02T19:05:58.837Z,81.89
2023-04-02T19:08:09.021Z,82.48
2023-04-02T19:10:26.202Z,82.88
2023-04-02T19:12:32.742Z,82.34
2023-04-02T19:14:35.702Z,82.38
2023-04-02T19:16:58.625Z,81.83
2023-04-02T19:19:11.600Z,81.12
2023-04-02T19:21:26.354Z,81.52
2023-04-02T19:23:43.906Z,83.59
2023-04-02T19:26:01.183Z,80.73
2023-04-02T19:28:22.340Z,81.23
2023-04-02T19:30:40.055Z,80.84
2023-04-02T19:32:53.880Z,80.94
2023-04-02T19:35:10.386Z,82.39
2023-04-02T19:37:16.112Z,81.29
2023-04-02T19:39:53.028Z,82.12
2023-04-02T19:42:03.811Z,83.29
2023-04-02T19:44:11.701Z,81.82
2023-04-02T19:46:16.226Z,82.19
2023-04-02T19:48:24.591Z,82.56
2023-04-02T19:50:28.492Z,83.04
2023-04-02T19:52:31.470Z,83.84
2023-04-02T19:54:35.810Z,82.96
2023-04-02T19:56:39.982Z,84.13
2023-04-02T19:58:42.913Z,83.57
2023-04-02T20:00:46.124Z,82.39
2023-04-02T20:02:49.201Z,81.84
2023-04-02T20:04:53.621Z,83.11
2023-04-02T20:06:56.564Z,83.16
2023-04-02T20:09:00.041Z,82.15
2023-04-02T20:11:03.588Z,82.28
2023-04-02T20:13:06.513Z,83.68
2023-04-02T20:15:10.455Z,84.23
2023-04-02T20:17:13.525Z,84.79
2023-04-02T20:19:16.565Z,85.71
2023-04-02T20:21:22.046Z,86.19
2023-04-02T20:23:24.726Z,85.23
2023-04-02T20:25:27.554Z,85.06
2023-04-02T20:27:31.523Z,86.40
2023-04-02T20:29:34.564Z,86.85
2023-04-02T20:31:37.640Z,87.52
2023-04-02T20:33:41.268Z,87.45
2023-04-02T20:35:44.765Z,86.95
2023-04-02T20:37:49.208Z,86.71
2023-04-02T20:39:52.564Z,86.22
2023-04-02T20:41:58.467Z,87.03
2023-04-02T20:44:01.552Z,86.87
2023-04-02T20:46:10.120Z,86.61
2023-04-02T20:48:13.779Z,87.50
2023-04-02T20:50:16.972Z,87.29
2023-04-02T20:52:20.004Z,87.18
2023-04-02T20:54:24.673Z,86.78
2023-04-02T20:56:28.183Z,87.25
2023-04-02T20:58:31.245Z,87.34
2023-04-02T21:00:34.510Z,86.63
2023-04-02T21:02:37.784Z,85.96
2023-04-02T21:04:40.825Z,86.50
2023-04-02T21:06:43.844Z,85.62
2023-04-02T21:08:47.210Z,86.98
2023-04-02T21:10:51.582Z,86.02
2023-04-02T21:12:54.612Z,85.49
2023-04-02T21:15:01.089Z,85.50
2023-04-02T21:17:07.427Z,87.03
2023-04-02T21:19:11.085Z,85.83
2023-04-02T21:21:15.838Z,85.64
2023-04-02T21:23:18.633Z,85.04
2023-04-02T21:25:21.887Z,85.17
2023-04-02T21:27:26.720Z,84.58
2023-04-02T21:29:29.826Z,84.58
2023-04-02T21:31:35.364Z,85.64
2023-04-02T21:33:40.454Z,86.19
2023-04-02T21:35:43.309Z,85.14
2023-04-02T21:37:46.294Z,86.12
2023-04-02T21:39:49.499Z,85.18
2023-04-02T21:41:53.603Z,85.46
2023-04-02T21:44:00.022Z,84.97
2023-04-02T21:46:03.042Z,85.73
2023-04-02T21:48:06.407Z,85.58
2023-04-02T21:50:10.632Z,84.80
2023-04-02T21:52:13.430Z,85.24
2023-04-02T21:54:17.051Z,85.27
2023-04-02T21:56:22.997Z,84.88
2023-04-02T21:58:25.963Z,85.47
2023-04-02T22:00:30.653Z,85.00
2023-04-02T22:02:33.600Z,85.87
2023-04-02T22:04:36.658Z,85.36
2023-04-02T22:06:41.763Z,85.98
2023-04-02T22:08:45.274Z,86.46
2023-04-02T22:10:48.347Z,86.45
2023-04-02T22:12:52.014Z,86.63
2023-04-02T22:14:55.066Z,85.08
2023-04-02T22:16:59.764Z,84.87
2023-04-02T22:19:05.924Z,87.24
2023-04-02T22:21:09.143Z,86.27
2023-04-02T22:23:12.315Z,85.72
2023-04-02T22:25:15.277Z,85.59
2023-04-02T22:27:18.263Z,87.51
2023-04-02T22:29:21.335Z,86.79
2023-04-02T22:31:26.761Z,86.81
2023-04-02T22:33:32.772Z,85.24
2023-04-02T22:35:35.741Z,87.57
2023-04-02T22:37:38.601Z,85.88
2023-04-02T22:39:41.619Z,85.84
2023-04-02T22:41:44.477Z,86.29
2023-04-02T22:43:47.454Z,86.75
2023-04-02T22:45:50.365Z,86.54
2023-04-02T22:47:53.515Z,86.72
2023-04-02T22:49:57.860Z,86.10
2023-04-02T22:52:00.911Z,87.17
2023-04-02T22:54:04.022Z,86.66
2023-04-02T22:56:08.425Z,86.06
2023-04-02T22:58:11.317Z,87.80
2023-04-02T23:00:16.743Z,86.63
2023-04-02T23:02:19.882Z,87.26
2023-04-02T23:04:22.913Z,87.57
2023-04-02T23:06:27.440Z,87.06
2023-04-02T23:08:30.943Z,86.83
2023-04-02T23:10:34.061Z,86.75
2023-04-02T23:12:37.095Z,87.03
2023-04-02T23:14:40.273Z,85.75
2023-04-02T23:16:43.237Z,86.50
2023-04-02T23:18:48.363Z,85.94
2023-04-02T23:20:51.426Z,86.64
2023-04-02T23:22:56.007Z,86.37
2023-04-02T23:24:58.942Z,86.95
2023-04-02T23:27:01.872Z,86.42
2023-04-02T23:29:06.642Z,85.84
2023-04-02T23:31:12.925Z,85.23
2023-04-02T23:33:15.976Z,85.63
2023-04-02T23:35:18.766Z,85.48
2023-04-02T23:37:21.684Z,87.48
2023-04-02T23:39:26.036Z,85.69
2023-04-02T23:41:30.084Z,84.68
2023-04-02T23:43:33.034Z,84.88
2023-04-02T23:45:36.726Z,85.81
2023-04-02T23:47:39.642Z,85.25
2023-04-02T23:49:47.867Z,84.76
2023-04-02T23:51:51.482Z,84.75
2023-04-02T23:53:55.763Z,83.29
2023-04-02T23:56:00.304Z,84.54
2023-04-02T23:58:04.323Z,83.98
